Terminal Aerodrome Forecast
Issued by NWS Springfield, MO

Home | Current Version | Previous Version | Text Only | Print | Product List | Glossary On
Versions: 1 2 3 4 5 6 7 8 9 10 11 12 13 14
562
FTUS43 KSGF 271551 AAA
TAFSGF
TAF AMD
KSGF 271551Z 2716/2812 17008KT P6SM VCTS BKN025CB
     FM272200 18012G21KT P6SM VCTS BKN040CB
      TEMPO 2723/2803 VRB25G35KT 2SM +TSRA BR OVC025CB
     FM280500 24005KT 5SM BR BKN020
     FM281000 30007KT P6SM BKN008=

USA.gov is the U.S. government's official web portal to all federal, state and local government web resources and services.